createdAt,value
2018-08-25T00:01:14.614Z,16.20
2018-08-25T00:05:18.062Z,16.20
2018-08-25T00:09:21.393Z,16.20
2018-08-25T00:13:24.759Z,16.10
2018-08-25T00:17:28.186Z,16.10
2018-08-25T00:21:31.512Z,16.10
2018-08-25T00:25:34.849Z,16.00
2018-08-25T00:29:38.234Z,16.00
2018-08-25T00:33:41.564Z,15.90
2018-08-25T00:37:44.916Z,15.90
2018-08-25T00:41:48.231Z,15.80
2018-08-25T00:45:51.591Z,15.80
2018-08-25T00:49:54.911Z,15.80
2018-08-25T00:53:58.234Z,15.80
2018-08-25T00:58:01.552Z,15.70
2018-08-25T01:02:04.935Z,15.70
2018-08-25T01:06:08.264Z,15.70
2018-08-25T01:10:11.621Z,15.60
2018-08-25T01:14:14.997Z,15.60
2018-08-25T01:18:18.324Z,15.60
2018-08-25T01:22:21.694Z,15.50
2018-08-25T01:26:24.995Z,15.50
2018-08-25T01:30:28.373Z,15.50
2018-08-25T01:34:34.100Z,15.50
2018-08-25T01:38:37.447Z,15.50
2018-08-25T01:42:41.056Z,15.40
2018-08-25T01:46:44.375Z,15.40
2018-08-25T01:50:47.720Z,15.40
2018-08-25T01:54:51.151Z,15.40
2018-08-25T01:58:54.604Z,15.40
2018-08-25T02:02:58.397Z,15.40
2018-08-25T02:07:01.725Z,15.40
2018-08-25T02:11:05.285Z,15.30
2018-08-25T02:15:08.687Z,15.30
2018-08-25T02:19:12.028Z,15.30
2018-08-25T02:23:20.253Z,15.30
2018-08-25T02:27:23.601Z,15.20
2018-08-25T02:31:26.947Z,15.20
2018-08-25T02:35:31.341Z,15.20
2018-08-25T02:39:34.691Z,15.20
2018-08-25T02:43:38.009Z,15.20
2018-08-25T02:47:41.353Z,15.20
2018-08-25T02:51:44.653Z,15.10
2018-08-25T02:55:48.191Z,15.10
2018-08-25T02:59:51.522Z,15.10
2018-08-25T03:03:56.348Z,15.10
2018-08-25T03:07:59.714Z,15.10
2018-08-25T03:12:03.050Z,15.00
2018-08-25T03:16:11.286Z,15.00
2018-08-25T03:20:19.275Z,15.00
2018-08-25T03:24:22.628Z,15.00
2018-08-25T03:28:25.984Z,15.00
2018-08-25T03:32:29.320Z,15.00
2018-08-25T03:36:32.664Z,14.90
2018-08-25T03:40:36.004Z,14.90
2018-08-25T03:44:39.336Z,14.90
2018-08-25T03:48:42.670Z,14.90
2018-08-25T03:52:45.974Z,14.80
2018-08-25T03:56:49.316Z,14.80
2018-08-25T04:00:52.684Z,14.80
2018-08-25T04:04:57.595Z,14.70
2018-08-25T04:09:00.927Z,14.70
2018-08-25T04:13:04.282Z,14.70
2018-08-25T04:17:07.599Z,14.70
2018-08-25T04:21:10.934Z,14.70
2018-08-25T04:25:14.290Z,14.70
2018-08-25T04:29:17.675Z,14.70
2018-08-25T04:33:20.986Z,14.60
2018-08-25T04:37:24.315Z,14.60
2018-08-25T04:41:27.667Z,14.70
2018-08-25T04:45:31.003Z,14.70
2018-08-25T04:49:34.345Z,14.70
2018-08-25T04:53:37.675Z,14.70
2018-08-25T04:57:46.542Z,14.70
2018-08-25T05:01:54.255Z,14.70
2018-08-25T05:05:57.538Z,14.70
2018-08-25T05:10:00.854Z,14.70
2018-08-25T05:14:04.179Z,14.80
2018-08-25T05:18:07.524Z,14.80
2018-08-25T05:22:10.896Z,14.80
2018-08-25T05:26:14.238Z,14.90
2018-08-25T05:30:17.602Z,14.90
2018-08-25T05:34:20.911Z,14.90
2018-08-25T05:38:24.233Z,15.00
2018-08-25T05:42:27.579Z,15.00
2018-08-25T05:46:30.906Z,15.10
2018-08-25T05:50:34.262Z,15.10
2018-08-25T05:54:37.575Z,15.10
2018-08-25T05:58:40.911Z,15.20
2018-08-25T06:02:44.267Z,15.20
2018-08-25T06:06:47.616Z,15.20
2018-08-25T06:10:51.199Z,15.20
2018-08-25T06:14:59.245Z,15.20
2018-08-25T06:19:03.633Z,15.20
2018-08-25T06:23:06.936Z,15.10
2018-08-25T06:27:10.306Z,15.10
2018-08-25T06:31:13.731Z,15.00
2018-08-25T06:35:17.032Z,14.90
2018-08-25T06:39:20.399Z,14.90
2018-08-25T06:43:23.794Z,14.80
2018-08-25T06:47:27.102Z,14.80
2018-08-25T06:51:30.427Z,14.80
2018-08-25T06:55:33.778Z,14.70
2018-08-25T06:59:37.190Z,14.70
2018-08-25T07:03:41.315Z,14.70
2018-08-25T07:07:44.710Z,14.70
2018-08-25T07:11:48.042Z,14.70
2018-08-25T07:15:51.411Z,14.80
2018-08-25T07:19:54.735Z,14.70
2018-08-25T07:23:58.077Z,14.70
2018-08-25T07:28:04.196Z,14.80
2018-08-25T07:32:07.592Z,14.80
2018-08-25T07:36:10.932Z,14.80
2018-08-25T07:40:14.329Z,14.80
2018-08-25T07:44:17.926Z,14.80
2018-08-25T07:48:21.354Z,14.80
2018-08-25T07:52:24.692Z,14.90
2018-08-25T07:56:28.094Z,14.90
2018-08-25T08:00:31.450Z,14.90
2018-08-25T08:04:35.053Z,15.00
2018-08-25T08:08:38.444Z,15.10
2018-08-25T08:12:41.835Z,15.30
2018-08-25T08:16:45.223Z,15.40
2018-08-25T08:20:48.697Z,15.60
2018-08-25T08:24:52.168Z,15.70
2018-08-25T08:28:55.731Z,15.70
2018-08-25T08:32:59.234Z,15.70
2018-08-25T08:37:02.636Z,15.60
2018-08-25T08:41:06.181Z,15.50
2018-08-25T08:45:09.908Z,15.50
2018-08-25T08:49:13.246Z,15.50
2018-08-25T08:53:16.722Z,15.60
2018-08-25T08:57:20.067Z,15.60
2018-08-25T09:01:23.407Z,15.50
2018-08-25T09:05:26.753Z,15.50
2018-08-25T09:09:30.091Z,15.40
2018-08-25T09:13:33.423Z,15.40
2018-08-25T09:17:36.812Z,15.50
2018-08-25T09:21:40.230Z,15.70
2018-08-25T09:25:44.427Z,15.90
2018-08-25T09:29:47.883Z,16.00
2018-08-25T09:33:51.240Z,16.20
2018-08-25T09:37:54.770Z,16.40
2018-08-25T09:41:58.163Z,16.60
2018-08-25T09:46:01.525Z,16.70
2018-08-25T09:50:04.911Z,17.00
2018-08-25T09:54:08.355Z,17.20
2018-08-25T09:58:13.171Z,17.50
2018-08-25T10:02:16.566Z,17.60
2018-08-25T10:06:19.953Z,17.60
2018-08-25T10:10:23.318Z,17.60
2018-08-25T10:14:26.652Z,17.40
2018-08-25T10:18:30.077Z,17.20
2018-08-25T10:22:33.418Z,16.90
2018-08-25T10:26:36.838Z,16.70
2018-08-25T10:30:42.370Z,16.70
2018-08-25T10:34:45.755Z,16.70
2018-08-25T10:38:49.091Z,16.70
2018-08-25T10:42:52.481Z,16.80
2018-08-25T10:46:55.820Z,16.90
2018-08-25T10:50:59.294Z,17.10
2018-08-25T10:55:02.636Z,17.30
2018-08-25T10:59:06.071Z,17.60
2018-08-25T11:03:09.484Z,17.70
2018-08-25T11:07:15.488Z,17.70
2018-08-25T11:11:18.943Z,17.50
2018-08-25T11:15:22.490Z,17.40
2018-08-25T11:19:26.132Z,17.30
2018-08-25T11:23:29.499Z,17.20
2018-08-25T11:27:32.837Z,17.10
2018-08-25T11:31:36.194Z,17.30
2018-08-25T11:35:39.530Z,17.50
2018-08-25T11:39:42.875Z,17.80
2018-08-25T11:43:46.272Z,18.10
2018-08-25T11:47:49.602Z,18.40
2018-08-25T11:51:53.058Z,18.70
2018-08-25T11:55:56.430Z,18.90
2018-08-25T11:59:59.832Z,19.10
2018-08-25T12:04:03.866Z,19.30
2018-08-25T12:08:07.266Z,19.50
2018-08-25T12:12:10.633Z,19.60
2018-08-25T12:16:14.071Z,19.80
2018-08-25T12:20:17.463Z,19.80
2018-08-25T12:24:20.850Z,19.80
2018-08-25T12:28:24.204Z,19.70
2018-08-25T12:32:27.573Z,19.60
2018-08-25T12:36:31.026Z,19.60
2018-08-25T12:40:34.446Z,19.50
2018-08-25T12:44:37.808Z,19.60
2018-08-25T12:48:41.163Z,19.70
2018-08-25T12:52:44.472Z,19.70
2018-08-25T12:56:52.097Z,19.70
2018-08-25T13:00:55.475Z,19.70
2018-08-25T13:04:58.843Z,19.80
2018-08-25T13:09:07.956Z,19.80
2018-08-25T13:13:11.384Z,19.80
2018-08-25T13:17:14.736Z,19.90
2018-08-25T13:21:18.088Z,20.00
2018-08-25T13:25:21.411Z,20.20
2018-08-25T13:29:24.735Z,20.20
2018-08-25T13:33:28.091Z,20.20
2018-08-25T13:37:38.173Z,20.20
2018-08-25T13:41:42.040Z,20.30
2018-08-25T13:45:45.371Z,20.40
2018-08-25T13:49:48.694Z,20.40
2018-08-25T13:53:52.066Z,20.50
2018-08-25T13:57:55.403Z,20.50
2018-08-25T14:01:58.743Z,20.40
2018-08-25T14:06:02.116Z,20.30
2018-08-25T14:10:05.487Z,20.20
2018-08-25T14:14:08.814Z,19.90
2018-08-25T14:18:12.186Z,19.50
2018-08-25T14:22:15.527Z,19.20
2018-08-25T14:26:18.879Z,18.90
2018-08-25T14:30:22.220Z,18.60
2018-08-25T14:34:25.558Z,18.40
2018-08-25T14:38:28.899Z,18.40
2018-08-25T14:42:32.306Z,18.40
2018-08-25T14:46:39.355Z,18.60
2018-08-25T14:50:43.082Z,18.70
2018-08-25T14:54:46.414Z,19.00
2018-08-25T14:58:49.788Z,19.10
2018-08-25T15:02:53.126Z,19.30
2018-08-25T15:07:01.230Z,19.50
2018-08-25T15:11:04.609Z,19.60
2018-08-25T15:15:07.940Z,19.70
2018-08-25T15:19:11.291Z,19.70
2018-08-25T15:23:14.621Z,19.70
2018-08-25T15:27:18.000Z,19.60
2018-08-25T15:31:21.578Z,19.50
2018-08-25T15:35:24.955Z,19.50
2018-08-25T15:39:28.352Z,19.40
2018-08-25T15:43:31.699Z,19.40
2018-08-25T15:47:38.159Z,19.40
2018-08-25T15:51:41.614Z,19.30
2018-08-25T15:55:44.916Z,19.20
2018-08-25T15:59:48.271Z,19.10
2018-08-25T16:03:54.406Z,19.20
2018-08-25T16:07:57.770Z,19.40
2018-08-25T16:12:01.242Z,19.80
2018-08-25T16:16:04.505Z,20.20
2018-08-25T16:20:07.976Z,20.60
2018-08-25T16:24:11.339Z,21.00
2018-08-25T16:28:18.350Z,21.30
2018-08-25T16:32:24.076Z,21.60
2018-08-25T16:36:27.662Z,21.70
2018-08-25T16:40:35.218Z,21.70
2018-08-25T16:44:38.890Z,21.50
2018-08-25T16:48:42.260Z,21.10
2018-08-25T16:52:45.584Z,20.80
2018-08-25T16:56:48.899Z,20.50
2018-08-25T17:00:52.277Z,20.30
2018-08-25T17:04:55.639Z,20.00
2018-08-25T17:09:05.149Z,19.70
2018-08-25T17:13:08.495Z,19.50
2018-08-25T17:17:12.287Z,19.50
2018-08-25T17:21:15.780Z,19.40
2018-08-25T17:25:19.115Z,19.30
2018-08-25T17:29:22.503Z,19.20
2018-08-25T17:33:25.863Z,19.10
2018-08-25T17:37:29.179Z,18.90
2018-08-25T17:41:32.553Z,18.70
2018-08-25T17:45:35.885Z,18.60
2018-08-25T17:49:39.207Z,18.30
2018-08-25T17:53:42.530Z,18.20
2018-08-25T17:57:45.986Z,18.00
2018-08-25T18:01:49.211Z,17.90
2018-08-25T18:05:52.568Z,17.70
2018-08-25T18:09:56.511Z,17.60
2018-08-25T18:13:59.865Z,17.40
2018-08-25T18:18:05.870Z,17.20
2018-08-25T18:22:09.234Z,17.10
2018-08-25T18:26:13.050Z,16.90
2018-08-25T18:30:16.438Z,16.80
2018-08-25T18:34:19.751Z,16.60
2018-08-25T18:38:23.879Z,16.50
2018-08-25T18:42:29.561Z,16.40
2018-08-25T18:46:33.102Z,16.30
2018-08-25T18:50:39.323Z,16.20
2018-08-25T18:54:42.804Z,16.10
2018-08-25T18:58:46.079Z,16.00
2018-08-25T19:02:49.427Z,16.00
2018-08-25T19:06:52.779Z,15.80
2018-08-25T19:10:56.647Z,15.70
2018-08-25T19:15:00.019Z,15.70
2018-08-25T19:19:03.351Z,15.60
2018-08-25T19:23:06.869Z,15.50
2018-08-25T19:27:10.221Z,15.40
2018-08-25T19:31:13.554Z,15.40
2018-08-25T19:35:16.867Z,15.30
2018-08-25T19:39:20.204Z,15.30
2018-08-25T19:43:23.615Z,15.20
2018-08-25T19:47:26.987Z,15.20
2018-08-25T19:51:30.335Z,15.20
2018-08-25T19:55:33.743Z,15.10
2018-08-25T19:59:37.263Z,15.10
2018-08-25T20:03:40.857Z,15.00
2018-08-25T20:07:44.454Z,15.00
2018-08-25T20:11:47.791Z,14.90
2018-08-25T20:15:55.339Z,14.80
2018-08-25T20:20:02.203Z,14.70
2018-08-25T20:24:05.523Z,14.60
2018-08-25T20:28:08.847Z,14.50
2018-08-25T20:32:12.162Z,14.40
2018-08-25T20:36:15.757Z,14.30
2018-08-25T20:40:20.459Z,14.20
2018-08-25T20:44:23.778Z,14.10
2018-08-25T20:48:27.130Z,14.00
2018-08-25T20:52:30.563Z,13.90
2018-08-25T20:56:35.320Z,13.90
2018-08-25T21:00:38.705Z,13.90
2018-08-25T21:04:42.095Z,13.80
2018-08-25T21:08:45.435Z,13.70
2018-08-25T21:12:48.769Z,13.70
2018-08-25T21:16:52.104Z,13.60
2018-08-25T21:20:55.506Z,13.60
2018-08-25T21:24:58.812Z,13.50
2018-08-25T21:29:02.158Z,13.50
2018-08-25T21:33:05.571Z,13.40
2018-08-25T21:37:08.929Z,13.40
2018-08-25T21:41:12.312Z,13.30
2018-08-25T21:45:15.633Z,13.30
2018-08-25T21:49:18.968Z,13.20
2018-08-25T21:53:22.310Z,13.20
2018-08-25T21:57:26.522Z,13.10
2018-08-25T22:01:36.171Z,13.10
2018-08-25T22:05:39.504Z,13.10
2018-08-25T22:09:42.840Z,13.00
2018-08-25T22:13:46.167Z,12.90
2018-08-25T22:17:49.558Z,12.90
2018-08-25T22:21:53.030Z,12.90
2018-08-25T22:25:56.408Z,12.90
2018-08-25T22:29:59.751Z,12.90
2018-08-25T22:34:03.078Z,12.80
2018-08-25T22:38:06.432Z,12.80
2018-08-25T22:42:09.748Z,12.80
2018-08-25T22:46:13.055Z,12.70
2018-08-25T22:50:16.483Z,12.70
2018-08-25T22:54:19.810Z,12.70
2018-08-25T22:58:23.148Z,12.60
2018-08-25T23:02:30.731Z,12.60
2018-08-25T23:06:34.066Z,12.60
2018-08-25T23:10:37.379Z,12.50
2018-08-25T23:14:40.743Z,12.50
2018-08-25T23:18:44.356Z,12.50
2018-08-25T23:22:47.715Z,12.40
2018-08-25T23:26:51.035Z,12.40
2018-08-25T23:30:58.525Z,12.30
2018-08-25T23:35:04.266Z,12.40
2018-08-25T23:39:08.228Z,12.30
2018-08-25T23:43:11.702Z,12.30
2018-08-25T23:47:15.062Z,12.20
2018-08-25T23:51:18.539Z,12.20
2018-08-25T23:55:26.810Z,12.20
2018-08-25T23:59:30.148Z,12.20
